Blairsville, GA

1:00 PM EST on January 30, 2015 (GMT -0500)
Franklin | Change Station
CLOSE
Current Station
Airport
Location: Franklin,
Elevation: 2021 ft
Nearby Weather Stations
Active Advisory: Wind Advisory

Elev 2021 ft 35.22 °N, 83.42 °W | Updated 25 minutes ago

Partly Cloudy
Partly Cloudy
38 °F
Feels Like 31 °F
N
10
Wind Variable Wind from NW
Gusts 23 mph

Today
High -- | Low -- °F
--% Chance of Precip.
Yesterday
High -- | Low -- °F
Precip. -- in
7:36 AM 6:02 PM
Waxing Gibbous, 84% visible
Pressure 30.28 in
Visibility 10.0 miles
Clouds
Windchill 31 °F
Dew Point 18 °F
Humidity 44%
Rainfall 0.00 in
Snow Depth Not available.
UV Not available.
Pollen .60 out of 12
Air Quality Not available.
Flu Activity Not available.
METAR K1A5 301735Z AUTO 31009G20KT 250V010 10SM 03/M08 A3028 RMK AO2 T00331079

More Conditions Fewer Conditions

Pressure 30.28 in
Visibility 10.0 miles
Clouds
Windchill 31 °F
Dew Point 18 °F
Humidity 44%
Rainfall 0.00 in
Snow Depth Not available.
UV Not available.
Pollen .60 out of 12
Air Quality Not available.
Flu Activity Not available.
METAR K1A5 301735Z AUTO 31009G20KT 250V010 10SM 03/M08 A3028 RMK AO2 T00331079

More Conditions Fewer Conditions

10-Day Weather Forecast

Almanac

Astronomy

Jan. 30, 2015 Rise Set
Actual Time
Civil Twilight
Nautical Twilight
Astronomical Twilight
Moon
Length of Visible Light
Length of Day
Tomorrow will be .
, % of the Moon is Illuminated

Today's Extremes

State Highs State Lows

Community

WunderPhotos

Upload Photos

1,791,845 photos uploaded!

WunderBlogs® & News

Nearby

Air Quality

  Air Quality AQ Index Pollutant
Not available.

Snow Depth

Station Depth Elevation

Earthquake Activity

City Distance Mag. Time & Date
Minimum magnitude displayed is 2.5.

Coastal Water Temperatures

Place Temperature

Nearby Weather Stations